Time;durP1;ratioP1;P1;durP2;ratioP2;P2;SDS_P1;SDS_P2;PMS_P1;PMS_P2;Temp;Humidity;BMP_temperature;BMP_pressure;BME280_temperature;BME280_humidity;BME280_pressure;Samples;Min_cycle;Max_cycle;Signal;HPM_P1;HPM_P2
2022/05/11 00:01:12;;;;;;;14.38;9.10;;;19.30;92.60;;;;;;5053580;28;20033;-73
2022/05/11 00:03:38;;;;;;;20.50;10.70;;;19.20;92.60;;;;;;5053686;28;20025;-74
2022/05/11 00:06:12;;;;;;;14.40;9.23;;;19.20;92.50;;;;;;5053638;28;20048;-73
2022/05/11 00:08:38;;;;;;;16.95;8.40;;;19.20;92.40;;;;;;5053459;28;20033;-74
2022/05/11 00:11:14;;;;;;;14.30;8.80;;;19.10;92.10;;;;;;5053349;28;20039;-73
2022/05/11 00:13:39;;;;;;;13.57;7.68;;;19.10;92.40;;;;;;5053823;28;20017;-73
2022/05/11 00:16:14;;;;;;;15.52;8.38;;;19.10;92.40;;;;;;5053335;28;20585;-74
2022/05/11 00:18:40;;;;;;;16.58;9.23;;;19.00;92.50;;;;;;5053457;28;20048;-74
2022/05/11 00:21:15;;;;;;;12.77;7.30;;;19.00;92.80;;;;;;5053429;28;20033;-74
2022/05/11 00:23:40;;;;;;;14.20;7.80;;;19.00;92.20;;;;;;5053352;28;20056;-74
2022/05/11 00:26:12;;;;;;;12.80;7.78;;;19.10;92.30;;;;;;5053390;28;20447;-74
2022/05/11 00:28:38;;;;;;;14.07;8.48;;;19.10;92.50;;;;;;5053599;28;20533;-73
2022/05/11 00:31:10;;;;;;;14.02;8.95;;;19.00;93.10;;;;;;5052359;28;20116;-73
2022/05/11 00:33:36;;;;;;;14.20;8.30;;;19.00;92.80;;;;;;5053025;28;20391;-73
2022/05/11 00:36:20;;;;;;;14.13;8.38;;;19.00;92.90;;;;;;5052962;28;20083;-73
2022/05/11 00:38:47;;;;;;;14.85;8.80;;;19.00;93.30;;;;;;5053144;28;20127;-73
2022/05/11 00:41:13;;;;;;;14.73;8.60;;;18.90;93.10;;;;;;5053027;28;20025;-73
2022/05/11 00:43:42;;;;;;;18.20;8.88;;;19.00;93.00;;;;;;5053360;28;20285;-74
2022/05/11 00:46:13;;;;;;;12.52;7.75;;;18.90;92.70;;;;;;5052849;28;20051;-73
2022/05/11 00:51:30;;;;;;;15.93;8.55;;;19.00;93.70;;;;;;5052808;28;20520;-74
2022/05/11 00:53:56;;;;;;;16.98;8.63;;;18.90;93.80;;;;;;5052820;28;20152;-73
2022/05/11 00:56:23;;;;;;;14.18;8.00;;;18.90;93.10;;;;;;5052711;28;20063;-73
2022/05/11 00:58:53;;;;;;;11.70;8.20;;;18.90;92.90;;;;;;5053047;28;20021;-73
2022/05/11 01:01:18;;;;;;;18.08;7.95;;;19.00;93.10;;;;;;5052554;28;20033;-73
2022/05/11 01:03:51;;;;;;;12.25;8.00;;;19.00;92.90;;;;;;5052496;28;20099;-73
2022/05/11 01:06:19;;;;;;;13.90;8.68;;;19.00;92.70;;;;;;5052631;28;20112;-74
2022/05/11 01:08:44;;;;;;;14.88;7.47;;;18.90;92.80;;;;;;5052444;28;20089;-74
2022/05/11 01:11:13;;;;;;;12.48;8.05;;;18.90;92.80;;;;;;5051190;28;20029;-74
2022/05/11 01:13:41;;;;;;;16.05;7.85;;;18.90;92.50;;;;;;5053007;28;20443;-73
2022/05/11 01:16:13;;;;;;;13.80;7.82;;;18.90;92.70;;;;;;5052366;28;20029;-74
2022/05/11 01:18:40;;;;;;;11.48;7.32;;;18.80;92.60;;;;;;5052185;28;20057;-73
2022/05/11 01:21:12;;;;;;;9.48;6.90;;;18.80;92.50;;;;;;5052347;28;20033;-73
2022/05/11 01:23:48;;;;;;;14.18;8.23;;;18.70;92.30;;;;;;5051336;28;20063;-73
2022/05/11 01:26:18;;;;;;;10.57;6.32;;;18.80;92.40;;;;;;5051096;28;20024;-73
2022/05/11 01:28:47;;;;;;;10.88;7.03;;;18.80;92.30;;;;;;5052306;28;20124;-72
2022/05/11 01:31:15;;;;;;;18.52;8.70;;;18.80;92.50;;;;;;5051243;28;20041;-74
2022/05/11 01:33:47;;;;;;;16.70;9.00;;;18.70;92.40;;;;;;5051934;28;20021;-72
2022/05/11 01:36:31;;;;;;;18.80;10.75;;;18.80;92.50;;;;;;5063374;28;20036;-73
2022/05/11 01:39:03;;;;;;;11.43;7.38;;;18.80;92.80;;;;;;5071764;28;20029;-74
2022/05/11 01:41:37;;;;;;;12.07;7.68;;;18.80;92.60;;;;;;5070569;28;20412;-74
2022/05/11 01:44:06;;;;;;;14.38;7.68;;;18.70;92.60;;;;;;5071647;28;20397;-74
2022/05/11 01:46:32;;;;;;;14.52;7.70;;;18.70;92.50;;;;;;5072244;28;20430;-73
2022/05/11 01:48:58;;;;;;;15.80;8.30;;;18.70;92.70;;;;;;5071610;28;20032;-75
2022/05/11 01:51:24;;;;;;;13.57;7.90;;;18.70;93.00;;;;;;5071590;28;20049;-74
2022/05/11 01:53:49;;;;;;;16.15;8.23;;;18.70;92.90;;;;;;5071714;28;20043;-74
2022/05/11 01:56:19;;;;;;;14.63;8.20;;;18.70;92.70;;;;;;5071487;28;20331;-74
2022/05/11 01:58:45;;;;;;;17.00;8.05;;;18.70;92.80;;;;;;5071791;28;20021;-74
2022/05/11 02:01:15;;;;;;;13.23;7.10;;;18.70;92.60;;;;;;5071474;28;20119;-74
2022/05/11 02:03:41;;;;;;;9.38;6.85;;;18.70;92.70;;;;;;5071366;28;20060;-72
2022/05/11 02:08:58;;;;;;;9.57;7.15;;;18.70;92.70;;;;;;5071535;28;20409;-72
2022/05/11 02:11:23;;;;;;;10.63;7.00;;;18.70;92.60;;;;;;5071072;28;20033;-73
2022/05/11 02:13:49;;;;;;;12.35;7.30;;;18.60;92.80;;;;;;5070632;28;20343;-72
2022/05/11 02:16:15;;;;;;;17.77;7.85;;;18.60;93.10;;;;;;5071390;28;20029;-74
2022/05/11 02:18:41;;;;;;;15.48;7.60;;;18.60;93.20;;;;;;5071176;28;20035;-73
2022/05/11 02:21:13;;;;;;;11.32;7.45;;;18.60;93.10;;;;;;5071122;28;20041;-74
2022/05/11 02:23:38;;;;;;;13.30;7.97;;;18.60;93.10;;;;;;5071138;28;20028;-73
2022/05/11 02:26:13;;;;;;;15.82;7.80;;;18.50;93.50;;;;;;5070946;28;20051;-73
2022/05/11 02:28:39;;;;;;;15.70;8.48;;;18.50;93.40;;;;;;5071291;28;20489;-73
2022/05/11 02:31:20;;;;;;;14.63;7.88;;;18.50;93.50;;;;;;5070911;28;20032;-74
2022/05/11 02:33:46;;;;;;;11.68;7.75;;;18.50;93.70;;;;;;5070932;28;20112;-74
2022/05/11 02:36:14;;;;;;;16.55;8.23;;;18.50;93.10;;;;;;5070698;28;20151;-73
2022/05/11 02:38:42;;;;;;;17.20;9.25;;;18.50;93.40;;;;;;5071023;28;20085;-74
2022/05/11 02:41:16;;;;;;;12.15;7.93;;;18.50;93.30;;;;;;5070834;28;20024;-74
2022/05/11 02:43:42;;;;;;;17.73;8.30;;;18.40;93.40;;;;;;5071349;28;20024;-74
2022/05/11 02:46:16;;;;;;;18.02;9.32;;;18.50;93.40;;;;;;5070934;28;20096;-73
2022/05/11 02:48:42;;;;;;;14.32;8.48;;;18.40;93.40;;;;;;5070801;28;20094;-74
2022/05/11 02:51:17;;;;;;;16.35;8.82;;;18.40;93.10;;;;;;5070800;28;20347;-73
2022/05/11 02:53:42;;;;;;;14.75;7.80;;;18.30;93.80;;;;;;5070467;28;20124;-74
2022/05/11 02:56:17;;;;;;;15.23;8.07;;;18.30;93.70;;;;;;5070698;28;20490;-73
2022/05/11 02:58:42;;;;;;;11.98;7.68;;;18.30;93.60;;;;;;5071042;28;20032;-73
2022/05/11 03:01:14;;;;;;;14.80;7.40;;;18.30;93.60;;;;;;5070702;28;20107;-74
2022/05/11 03:03:40;;;;;;;14.73;8.02;;;18.30;93.80;;;;;;5069712;28;20043;-73
2022/05/11 03:06:17;;;;;;;13.68;7.82;;;18.40;93.60;;;;;;5070684;28;20036;-72
2022/05/11 03:08:43;;;;;;;10.65;7.07;;;18.30;93.70;;;;;;5070651;28;20067;-74
2022/05/11 03:11:15;;;;;;;11.13;7.15;;;18.30;93.30;;;;;;5070539;28;20059;-75
2022/05/11 03:13:41;;;;;;;16.10;7.55;;;18.30;93.50;;;;;;5070206;28;20387;-73
2022/05/11 03:16:09;;;;;;;11.57;7.25;;;18.20;93.50;;;;;;5070772;28;20025;-73
2022/05/11 03:18:35;;;;;;;12.60;7.28;;;18.30;93.90;;;;;;5069486;28;20021;-73
2022/05/11 03:21:07;;;;;;;14.15;7.07;;;18.20;93.70;;;;;;5070535;28;20409;-74
2022/05/11 03:23:32;;;;;;;14.35;6.70;;;18.20;93.70;;;;;;5070505;28;20048;-74
2022/05/11 03:25:58;;;;;;;11.45;6.80;;;18.20;93.90;;;;;;5071186;28;20481;-74
2022/05/11 03:28:25;;;;;;;12.00;7.03;;;18.20;94.00;;;;;;5070265;28;20474;-74
2022/05/11 03:30:50;;;;;;;10.40;7.10;;;18.20;94.00;;;;;;5070244;28;20039;-74
2022/05/11 03:36:00;;;;;;;12.52;6.90;;;18.10;93.70;;;;;;5070414;28;20549;-73
2022/05/11 03:38:26;;;;;;;12.18;7.88;;;18.10;93.80;;;;;;5070369;28;20025;-74
2022/05/11 03:40:52;;;;;;;11.80;6.78;;;18.20;93.90;;;;;;5070687;28;20024;-74
2022/05/11 03:43:17;;;;;;;10.70;7.38;;;18.20;93.80;;;;;;5070232;28;20033;-74
2022/05/11 03:45:45;;;;;;;12.57;7.57;;;18.20;94.00;;;;;;5070206;28;20043;-75
2022/05/11 03:48:11;;;;;;;12.13;7.93;;;18.20;94.20;;;;;;5069111;28;20043;-74
2022/05/11 03:50:37;;;;;;;15.07;8.27;;;18.20;94.40;;;;;;5070106;28;20451;-74
2022/05/11 03:53:03;;;;;;;12.82;8.13;;;18.10;94.40;;;;;;5070142;28;20111;-74
2022/05/11 03:55:29;;;;;;;14.05;9.10;;;18.10;94.40;;;;;;5070439;28;20174;-75
2022/05/11 03:57:55;;;;;;;16.73;9.13;;;18.10;94.50;;;;;;5070092;28;20024;-73
2022/05/11 04:00:23;;;;;;;15.02;9.38;;;18.20;94.80;;;;;;5069969;28;20442;-75
2022/05/11 04:02:51;;;;;;;18.05;8.88;;;18.20;94.70;;;;;;5069901;28;20048;-73
2022/05/11 04:05:18;;;;;;;11.98;8.63;;;18.10;94.70;;;;;;5070152;28;20415;-74
2022/05/11 04:07:43;;;;;;;20.02;9.18;;;18.10;94.80;;;;;;5074028;28;20044;-75
2022/05/11 04:10:11;;;;;;;12.43;8.40;;;18.10;94.90;;;;;;5073460;28;20089;-75
2022/05/11 04:12:37;;;;;;;14.48;9.30;;;18.10;94.90;;;;;;5073353;28;20359;-75
2022/05/11 04:15:03;;;;;;;16.77;8.07;;;18.10;94.90;;;;;;5073454;28;20035;-75
2022/05/11 04:17:29;;;;;;;15.63;8.95;;;18.10;95.00;;;;;;5073439;28;20036;-75
2022/05/11 04:19:55;;;;;;;17.80;9.15;;;18.10;95.10;;;;;;5072706;28;20033;-74
2022/05/11 04:22:24;;;;;;;14.55;9.13;;;18.10;95.20;;;;;;5073717;28;20029;-74
2022/05/11 04:24:49;;;;;;;16.45;9.10;;;18.10;95.10;;;;;;5073293;28;20040;-74
2022/05/11 04:27:15;;;;;;;13.70;9.25;;;18.10;95.10;;;;;;5073076;28;20460;-74
2022/05/11 04:29:41;;;;;;;18.33;9.27;;;18.00;95.30;;;;;;5071983;28;20466;-75
2022/05/11 04:32:07;;;;;;;13.40;8.38;;;18.00;95.00;;;;;;5073051;28;20032;-76
2022/05/11 04:34:34;;;;;;;15.40;8.55;;;18.00;95.10;;;;;;5073606;28;20021;-75
2022/05/11 04:37:00;;;;;;;15.10;8.55;;;18.00;95.20;;;;;;5073250;28;20028;-74
2022/05/11 04:39:26;;;;;;;18.77;8.30;;;18.10;95.10;;;;;;5072962;28;20066;-74
2022/05/11 04:41:51;;;;;;;12.90;8.13;;;18.10;95.00;;;;;;5072008;28;20033;-74
2022/05/11 04:44:17;;;;;;;16.73;8.57;;;18.20;95.00;;;;;;5072921;28;20453;-75
2022/05/11 04:46:42;;;;;;;13.00;8.88;;;18.20;95.10;;;;;;5073789;28;20025;-74
2022/05/11 04:49:19;;;;;;;14.48;8.90;;;18.20;94.80;;;;;;5073058;28;20367;-74
2022/05/11 04:51:47;;;;;;;19.08;8.68;;;18.20;94.80;;;;;;5071655;28;20186;-74
2022/05/11 04:54:13;;;;;;;16.98;8.48;;;18.30;94.80;;;;;;5073033;28;20556;-76
2022/05/11 04:56:38;;;;;;;13.95;8.32;;;18.20;94.80;;;;;;5072621;28;20087;-74
2022/05/11 04:59:05;;;;;;;17.65;8.73;;;18.20;94.70;;;;;;5072833;28;20347;-73
2022/05/11 05:01:31;;;;;;;12.57;8.10;;;18.20;94.70;;;;;;5072999;28;20039;-74
2022/05/11 05:03:56;;;;;;;14.43;8.07;;;18.20;94.60;;;;;;5072353;28;20039;-76
2022/05/11 05:06:22;;;;;;;18.33;8.60;;;18.20;94.70;;;;;;5071580;28;20036;-73
2022/05/11 05:08:47;;;;;;;13.50;8.55;;;18.20;94.70;;;;;;5072523;28;20059;-76
2022/05/11 05:11:18;;;;;;;14.88;8.13;;;18.30;94.70;;;;;;5072149;28;20036;-75
2022/05/11 05:13:43;;;;;;;16.55;8.00;;;18.30;94.60;;;;;;5072594;28;20032;-74
2022/05/11 05:16:23;;;;;;;17.05;8.20;;;18.40;94.70;;;;;;5072090;28;20043;-73
2022/05/11 05:18:50;;;;;;;13.45;8.50;;;18.40;94.60;;;;;;5071225;28;20029;-74
2022/05/11 05:21:16;;;;;;;24.77;8.50;;;18.40;94.50;;;;;;5072085;28;20135;-75
2022/05/11 05:23:41;;;;;;;12.88;8.43;;;18.40;94.70;;;;;;5072280;28;20089;-75
2022/05/11 05:26:22;;;;;;;11.75;8.02;;;18.40;94.70;;;;;;5072128;28;20123;-75
2022/05/11 05:31:32;;;;;;;14.38;8.02;;;18.50;94.50;;;;;;5072123;28;20036;-74
2022/05/11 05:33:59;;;;;;;11.10;7.88;;;18.50;94.40;;;;;;5071940;28;20037;-75
2022/05/11 05:36:31;;;;;;;12.10;8.18;;;18.50;94.30;;;;;;5070819;28;20033;-72
2022/05/11 05:38:58;;;;;;;13.10;8.20;;;18.60;94.40;;;;;;5070676;28;20429;-73
2022/05/11 05:41:26;;;;;;;16.87;8.10;;;18.50;94.30;;;;;;5070457;28;20370;-72
2022/05/11 05:43:53;;;;;;;14.65;8.30;;;18.40;94.60;;;;;;5072178;28;20031;-73
2022/05/11 05:46:22;;;;;;;15.50;8.68;;;18.50;94.70;;;;;;5071838;28;20036;-74
2022/05/11 05:48:48;;;;;;;13.82;8.35;;;18.50;94.60;;;;;;5070555;28;20462;-71
2022/05/11 05:51:27;;;;;;;12.65;8.00;;;18.60;94.50;;;;;;5071508;28;20044;-72
2022/05/11 05:53:52;;;;;;;15.35;8.70;;;18.60;94.50;;;;;;5071559;28;20037;-72
2022/05/11 05:56:21;;;;;;;11.82;7.60;;;18.70;94.30;;;;;;5071436;28;20025;-71
2022/05/11 05:58:47;;;;;;;20.63;8.07;;;18.70;94.30;;;;;;5071785;28;20032;-72
2022/05/11 06:01:17;;;;;;;19.70;7.90;;;18.70;94.20;;;;;;5071841;28;20296;-71
2022/05/11 06:03:44;;;;;;;12.77;7.97;;;18.80;94.00;;;;;;5071279;28;20048;-72
2022/05/11 06:06:20;;;;;;;15.87;8.43;;;18.80;94.10;;;;;;5071329;28;20090;-72
2022/05/11 06:08:45;;;;;;;16.27;8.45;;;18.80;94.00;;;;;;5070275;28;20029;-71
2022/05/11 06:11:17;;;;;;;12.75;7.75;;;18.90;93.90;;;;;;5071276;28;20033;-72
2022/05/11 06:13:45;;;;;;;13.93;7.35;;;18.90;93.90;;;;;;5071438;28;20029;-71
2022/05/11 06:16:29;;;;;;;16.63;7.60;;;18.90;93.80;;;;;;5071252;28;20108;-72
2022/05/11 06:18:54;;;;;;;13.95;7.78;;;18.90;93.80;;;;;;5070999;28;20025;-71
2022/05/11 06:21:21;;;;;;;11.30;7.63;;;19.00;93.50;;;;;;5071105;28;20039;-73
2022/05/11 06:23:47;;;;;;;12.30;7.35;;;19.00;93.30;;;;;;5071077;28;20060;-72
2022/05/11 06:26:24;;;;;;;14.73;9.82;;;19.00;93.10;;;;;;5071066;28;20024;-71
2022/05/11 06:28:50;;;;;;;15.75;9.00;;;19.10;93.20;;;;;;5070825;28;20052;-71
2022/05/11 06:31:19;;;;;;;11.13;7.43;;;19.00;93.00;;;;;;5071109;28;20054;-72
2022/05/11 06:33:46;;;;;;;14.80;7.80;;;19.00;92.90;;;;;;5070875;28;20442;-72
2022/05/11 06:36:23;;;;;;;13.80;7.10;;;19.10;92.90;;;;;;5071139;28;20033;-71
2022/05/11 06:38:49;;;;;;;14.43;7.90;;;19.10;93.00;;;;;;5070826;28;20339;-72
2022/05/11 06:41:41;;;;;;;14.23;7.57;;;19.20;92.80;;;;;;5070674;28;20450;-71
2022/05/11 06:44:08;;;;;;;16.38;9.02;;;19.20;92.60;;;;;;5070754;28;20025;-71
2022/05/11 06:46:34;;;;;;;22.63;8.23;;;19.30;92.50;;;;;;5070238;28;20367;-72
2022/05/11 06:48:59;;;;;;;16.70;7.57;;;19.30;92.30;;;;;;5070833;28;20029;-72
2022/05/11 06:51:25;;;;;;;21.90;9.80;;;19.30;92.20;;;;;;5070634;28;20036;-72
2022/05/11 06:59:24;;;;;;;13.95;7.97;;;19.50;92.50;;;;;;5070695;28;20079;-71
2022/05/11 07:01:53;;;;;;;;;;;19.60;92.30;;;;;;5071390;28;20028;-72
2022/05/11 07:04:22;;;;;;;11.60;7.80;;;19.70;92.20;;;;;;5070702;28;20311;-72
2022/05/11 07:06:55;;;;;;;13.77;8.00;;;19.90;92.10;;;;;;5070563;28;20047;-72
2022/05/11 07:09:23;;;;;;;12.70;8.77;;;20.10;92.00;;;;;;5069795;28;20526;-70
2022/05/11 07:14:33;;;;;;;10.30;7.32;;;20.50;91.50;;;;;;5070754;28;20036;-72
2022/05/11 07:16:59;;;;;;;23.30;12.95;;;20.70;91.40;;;;;;5070598;28;20401;-72
2022/05/11 07:19:25;;;;;;;15.00;8.82;;;20.80;91.20;;;;;;5071143;28;20016;-70
2022/05/11 07:21:52;;;;;;;12.00;7.80;;;20.90;90.80;;;;;;5070462;28;20354;-71
2022/05/11 07:24:17;;;;;;;12.93;7.75;;;21.00;90.90;;;;;;5070426;28;20024;-71
2022/05/11 07:26:43;;;;;;;15.20;7.60;;;21.10;90.70;;;;;;5070259;28;20025;-71
2022/05/11 07:29:09;;;;;;;13.80;6.93;;;21.10;90.70;;;;;;5070019;28;20520;-73
2022/05/11 07:31:34;;;;;;;13.25;7.28;;;21.10;90.40;;;;;;5070794;28;20012;-71
2022/05/11 07:34:00;;;;;;;12.82;7.03;;;21.20;90.30;;;;;;5070165;28;20029;-71
2022/05/11 07:36:25;;;;;;;9.82;7.03;;;21.30;90.00;;;;;;5069235;28;20482;-72
2022/05/11 07:38:51;;;;;;;13.48;7.35;;;21.40;90.10;;;;;;5069160;28;20236;-72
2022/05/11 07:41:36;;;;;;;17.60;6.85;;;21.50;89.60;;;;;;5073281;28;20059;-72
2022/05/11 07:44:03;;;;;;;13.88;7.82;;;21.60;88.50;;;;;;5073829;28;20442;-72
2022/05/11 07:46:34;;;;;;;13.57;6.97;;;21.70;88.00;;;;;;5073051;28;20522;-73
2022/05/11 07:49:03;;;;;;;13.30;6.95;;;21.80;87.10;;;;;;5073790;28;20032;-71
2022/05/11 07:51:29;;;;;;;10.57;6.00;;;21.90;86.90;;;;;;5073579;28;20028;-72
2022/05/11 07:53:55;;;;;;;10.32;7.13;;;21.90;86.90;;;;;;5073801;28;20039;-72
2022/05/11 08:01:58;;;;;;;14.75;6.80;;;22.90;83.80;;;;;;5074458;28;20043;-71
2022/05/11 08:04:24;;;;;;;9.57;6.38;;;23.60;83.90;;;;;;5073789;28;20025;-72
2022/05/11 08:06:50;;;;;;;18.85;10.43;;;24.20;82.20;;;;;;5072511;28;20082;-70
2022/05/11 08:09:15;;;;;;;12.07;6.68;;;25.10;80.80;;;;;;5073573;28;20037;-70
2022/05/11 08:11:41;;;;;;;11.48;6.57;;;25.90;75.30;;;;;;5073536;28;20465;-72
2022/05/11 08:14:07;;;;;;;10.70;5.95;;;26.60;75.20;;;;;;5073412;28;20450;-70
2022/05/11 08:16:33;;;;;;;11.93;6.85;;;26.80;72.80;;;;;;5074312;28;20027;-71
2022/05/11 08:18:58;;;;;;;8.95;5.15;;;27.40;71.90;;;;;;5072380;28;20115;-71
2022/05/11 08:21:27;;;;;;;10.00;6.85;;;27.80;68.20;;;;;;5073313;28;20174;-72
2022/05/11 08:23:53;;;;;;;9.35;5.80;;;28.50;68.90;;;;;;5073320;28;20028;-73
2022/05/11 08:26:19;;;;;;;9.27;5.47;;;29.30;67.40;;;;;;5073187;28;20043;-73
2022/05/11 08:28:44;;;;;;;7.97;5.05;;;29.50;61.60;;;;;;5073193;28;20094;-72
2022/05/11 08:34:07;;;;;;;9.18;5.18;;;30.50;59.80;;;;;;5072973;28;20474;-71
2022/05/11 08:36:32;;;;;;;9.32;4.60;;;31.00;57.60;;;;;;5073141;28;20110;-70
2022/05/11 08:38:59;;;;;;;9.75;4.88;;;30.80;55.10;;;;;;5073232;28;20039;-72
2022/05/11 08:41:48;;;;;;;9.15;4.65;;;31.20;55.40;;;;;;5073021;28;20116;-73
2022/05/11 08:44:14;;;;;;;9.15;4.50;;;32.30;55.70;;;;;;5072916;28;20098;-73
2022/05/11 08:46:55;;;;;;;9.90;4.43;;;32.40;52.60;;;;;;5073283;28;20113;-72
2022/05/11 08:49:53;;;;;;;5.35;3.80;;;32.70;50.90;;;;;;5072873;28;20303;-72
2022/05/11 08:52:50;;;;;;;7.20;3.25;;;32.60;48.40;;;;;;5071983;28;20398;-72
2022/05/11 08:55:40;;;;;;;7.28;3.15;;;32.70;47.50;;;;;;5072764;28;20094;-72
2022/05/11 08:58:12;;;;;;;7.50;3.58;;;32.20;47.60;;;;;;5072638;28;20025;-72
2022/05/11 09:00:41;;;;;;;10.02;4.10;;;33.60;48.90;;;;;;5072347;28;20025;-71
2022/05/11 09:03:17;;;;;;;6.80;4.40;;;34.20;47.50;;;;;;5072208;28;20044;-73
2022/05/11 09:05:42;;;;;;;8.10;3.97;;;34.00;45.90;;;;;;5072423;28;20510;-71
2022/05/11 09:08:10;;;;;;;8.27;3.58;;;34.20;45.40;;;;;;5072152;28;20044;-72
2022/05/11 09:10:39;;;;;;;5.57;3.30;;;33.90;45.30;;;;;;5072724;28;20032;-73
2022/05/11 09:13:13;;;;;;;11.00;3.55;;;34.00;44.90;;;;;;5072401;28;20033;-71
2022/05/11 09:15:53;;;;;;;4.35;3.60;;;34.30;44.30;;;;;;5072100;28;20063;-72
2022/05/11 09:18:30;;;;;;;8.90;3.92;;;33.60;42.30;;;;;;5071153;28;20040;-71
2022/05/11 09:20:57;;;;;;;7.32;3.25;;;34.30;43.70;;;;;;5072346;28;20050;-72
2022/05/11 09:23:27;;;;;;;7.68;4.15;;;34.30;44.10;;;;;;5072008;28;20033;-71
2022/05/11 09:26:02;;;;;;;6.93;3.78;;;35.20;43.60;;;;;;5072357;28;20216;-73
2022/05/11 09:28:31;;;;;;;7.97;4.85;;;34.10;44.10;;;;;;5072061;28;20101;-73
2022/05/11 09:31:24;;;;;;;11.43;4.05;;;34.20;42.40;;;;;;5071782;28;20036;-72
2022/05/11 09:34:05;;;;;;;6.20;4.35;;;33.90;43.70;;;;;;5070287;28;20024;-72
2022/05/11 09:36:40;;;;;;;5.28;3.80;;;34.80;42.30;;;;;;5070651;28;20035;-71
2022/05/11 09:39:17;;;;;;;28.98;18.48;;;35.00;42.80;;;;;;5071899;28;20088;-72
2022/05/11 09:41:53;;;;;;;6.38;3.78;;;35.10;41.20;;;;;;5072024;28;20474;-73
2022/05/11 09:44:28;;;;;;;9.63;5.22;;;34.70;40.80;;;;;;5070272;28;20078;-72
2022/05/11 09:46:55;;;;;;;8.02;4.00;;;34.30;42.30;;;;;;5072225;28;20021;-73
2022/05/11 09:49:21;;;;;;;9.13;3.70;;;33.90;42.30;;;;;;5071583;28;20024;-71
2022/05/11 09:51:46;;;;;;;6.80;4.00;;;33.80;43.00;;;;;;5070550;28;20466;-72
2022/05/11 09:54:18;;;;;;;13.52;4.38;;;34.00;42.40;;;;;;5071616;28;20029;-72
2022/05/11 09:56:57;;;;;;;6.75;3.20;;;34.00;41.40;;;;;;5070049;28;20047;-71
2022/05/11 09:59:36;;;;;;;6.90;3.47;;;33.10;41.50;;;;;;5071434;28;20032;-73
2022/05/11 10:02:23;;;;;;;8.15;3.45;;;33.10;41.30;;;;;;5071521;28;20442;-72
2022/05/11 10:04:56;;;;;;;6.93;3.22;;;32.30;42.40;;;;;;5072029;28;20386;-72
2022/05/11 10:07:23;;;;;;;4.57;3.20;;;30.90;44.20;;;;;;5071162;28;20036;-71
2022/05/11 10:09:55;;;;;;;6.45;3.13;;;30.60;45.00;;;;;;5071201;28;20039;-70
2022/05/11 10:12:27;;;;;;;7.53;3.17;;;29.90;45.10;;;;;;5071334;28;20052;-71
2022/05/11 10:23:28;;;;;;;7.10;3.35;;;29.40;46.30;;;;;;5071281;28;20071;-72
2022/05/11 10:26:03;;;;;;;7.20;2.80;;;29.10;47.40;;;;;;5071424;28;20028;-72
2022/05/11 10:28:52;;;;;;;9.43;3.50;;;29.10;47.20;;;;;;5070905;28;20129;-71
2022/05/11 10:32:03;;;;;;;6.93;3.42;;;29.30;46.90;;;;;;5070861;28;20036;-71
2022/05/11 10:34:42;;;;;;;6.97;2.80;;;28.80;47.20;;;;;;5060840;28;20056;-73
2022/05/11 10:37:19;;;;;;;7.68;3.25;;;28.60;47.80;;;;;;5070781;28;20046;-74
2022/05/11 10:39:53;;;;;;;6.28;2.95;;;28.90;47.30;;;;;;5070841;28;20026;-72
2022/05/11 10:42:36;;;;;;;7.68;2.80;;;28.70;47.10;;;;;;5070640;28;20024;-73
2022/05/11 10:45:27;;;;;;;6.88;3.08;;;29.10;47.00;;;;;;5070937;28;20393;-73
2022/05/11 10:48:35;;;;;;;6.18;2.92;;;28.80;46.10;;;;;;5070715;28;20028;-72
2022/05/11 10:51:32;;;;;;;10.43;2.90;;;28.10;46.30;;;;;;5064755;28;20036;-72
2022/05/11 10:54:05;;;;;;;12.98;2.88;;;28.10;46.50;;;;;;5070666;28;20044;-73
2022/05/11 10:56:40;;;;;;;7.82;3.40;;;28.30;46.00;;;;;;5070478;28;20029;-72
2022/05/11 10:59:37;;;;;;;6.72;3.17;;;28.60;46.00;;;;;;5070672;28;20029;-73
2022/05/11 11:02:26;;;;;;;8.50;2.85;;;28.50;46.00;;;;;;5070653;28;20031;-72
2022/05/11 11:05:13;;;;;;;8.23;2.92;;;28.50;46.10;;;;;;5071134;28;20386;-72
2022/05/11 11:07:44;;;;;;;;;;;28.50;45.70;;;;;;5070106;28;20052;-73
2022/05/11 11:10:31;;;;;;;15.35;3.42;;;28.30;45.90;;;;;;5070478;28;19920;-73
2022/05/11 11:13:11;;;;;;;11.23;3.38;;;28.20;46.80;;;;;;5070701;28;20484;-74
2022/05/11 11:15:42;;;;;;;4.68;2.90;;;27.90;46.20;;;;;;5072493;28;20058;-75
2022/05/11 11:18:11;;;;;;;6.05;3.28;;;27.90;46.70;;;;;;5074942;28;20125;-73
2022/05/11 11:20:39;;;;;;;9.65;2.85;;;28.00;46.30;;;;;;5073494;28;20086;-74
2022/05/11 11:23:08;;;;;;;10.88;3.35;;;27.60;47.50;;;;;;5074371;28;20017;-72
2022/05/11 11:25:43;;;;;;;11.07;3.28;;;27.60;47.70;;;;;;5074862;28;20025;-73
2022/05/11 11:28:12;;;;;;;6.10;2.97;;;27.70;47.90;;;;;;5074141;28;20067;-74
2022/05/11 11:31:15;;;;;;;10.48;3.42;;;27.60;47.80;;;;;;5072932;28;20590;-73
2022/05/11 11:33:54;;;;;;;8.00;3.38;;;27.50;48.00;;;;;;5074299;28;20093;-74
2022/05/11 11:36:35;;;;;;;5.13;3.30;;;27.60;48.60;;;;;;5074178;28;20032;-73
2022/05/11 11:39:04;;;;;;;8.75;3.25;;;27.40;48.30;;;;;;5073093;28;20339;-73
2022/05/11 11:41:32;;;;;;;10.18;3.30;;;27.70;48.70;;;;;;5074216;28;20013;-72
2022/05/11 11:44:30;;;;;;;12.98;3.22;;;27.30;49.00;;;;;;5074259;28;20397;-73
2022/05/11 11:46:57;;;;;;;11.80;3.88;;;27.40;49.50;;;;;;5073936;28;20125;-73
2022/05/11 11:49:26;;;;;;;5.50;2.80;;;27.70;49.10;;;;;;5074385;28;20024;-73
2022/05/11 11:52:03;;;;;;;10.43;3.53;;;27.70;49.10;;;;;;5073795;28;20491;-73
2022/05/11 11:54:38;;;;;;;6.10;3.40;;;27.50;49.30;;;;;;5073851;28;20105;-72
2022/05/11 11:57:28;;;;;;;6.20;2.95;;;27.60;49.20;;;;;;5074095;28;20029;-74
2022/05/11 11:59:57;;;;;;;14.23;3.75;;;27.30;48.90;;;;;;5070994;28;20409;-72
2022/05/11 12:02:42;;;;;;;6.97;2.90;;;27.10;49.60;;;;;;5073688;28;20052;-72
2022/05/11 12:05:27;;;;;;;4.95;3.10;;;27.20;49.60;;;;;;5074145;28;20114;-73
2022/05/11 12:16:56;;;;;;;7.32;4.50;;;27.00;49.70;;;;;;5073714;28;20043;-72
2022/05/11 12:19:28;;;;;;;9.80;2.83;;;27.20;49.50;;;;;;5073127;28;20031;-73
2022/05/11 12:22:12;;;;;;;9.23;3.15;;;27.40;49.40;;;;;;5057532;28;20021;-73
2022/05/11 12:24:43;;;;;;;9.30;2.88;;;27.50;49.10;;;;;;5066881;28;20082;-73
2022/05/11 12:27:22;;;;;;;8.18;3.00;;;27.50;48.90;;;;;;5071757;28;20508;-73
2022/05/11 12:29:59;;;;;;;8.70;2.83;;;27.10;49.00;;;;;;5065302;28;20069;-73
2022/05/11 12:32:29;;;;;;;7.18;3.30;;;27.30;49.10;;;;;;5056692;28;20060;-73
2022/05/11 12:34:57;;;;;;;11.15;3.20;;;27.20;49.70;;;;;;5073490;28;20028;-73
2022/05/11 12:37:29;;;;;;;7.40;2.60;;;27.30;49.00;;;;;;5073189;28;20043;-73
2022/05/11 12:39:56;;;;;;;9.40;2.63;;;27.30;49.10;;;;;;5056059;28;20037;-73
2022/05/11 12:42:41;;;;;;;9.65;3.17;;;27.30;49.10;;;;;;5064601;28;20033;-73
2022/05/11 12:45:20;;;;;;;11.55;3.40;;;27.20;49.50;;;;;;5073061;28;20032;-74
2022/05/11 12:47:50;;;;;;;9.93;3.25;;;27.00;49.70;;;;;;5066518;28;20521;-72
2022/05/11 12:50:25;;;;;;;10.32;3.22;;;26.80;50.30;;;;;;5055208;28;20043;-73
2022/05/11 12:53:17;;;;;;;9.02;3.20;;;26.70;50.20;;;;;;5073241;28;20385;-73
2022/05/11 12:55:49;;;;;;;7.05;2.85;;;26.90;50.00;;;;;;5050242;28;20033;-75
2022/05/11 12:58:24;;;;;;;7.70;2.60;;;26.90;49.70;;;;;;5070196;28;20602;-73
2022/05/11 13:01:03;;;;;;;6.60;2.70;;;26.80;50.10;;;;;;5072677;28;20029;-74
2022/05/11 13:03:36;;;;;;;5.90;2.95;;;26.80;50.20;;;;;;5060241;28;20428;-73
2022/05/11 13:06:05;;;;;;;10.68;3.58;;;26.90;50.20;;;;;;5060202;28;20033;-74
2022/05/11 13:08:42;;;;;;;8.73;2.78;;;27.00;49.80;;;;;;5072544;28;20035;-72
2022/05/11 13:14:36;;;;;;;6.75;2.60;;;26.90;50.00;;;;;;5056953;28;20055;-74
2022/05/11 13:17:24;;;;;;;11.15;2.90;;;26.80;50.00;;;;;;5072459;28;20017;-73
2022/05/11 13:20:06;;;;;;;3.08;2.15;;;26.80;49.90;;;;;;5072749;28;20025;-73
2022/05/11 13:22:33;;;;;;;9.18;2.28;;;26.80;49.90;;;;;;5072268;28;20044;-73
2022/05/11 13:25:06;;;;;;;11.73;2.15;;;26.90;48.90;;;;;;5054586;28;20273;-72
2022/05/11 13:27:38;;;;;;;6.28;2.50;;;26.80;49.00;;;;;;5064899;28;20028;-74
2022/05/11 13:30:32;;;;;;;5.57;2.20;;;26.90;48.90;;;;;;5072078;28;20190;-73
2022/05/11 13:33:03;;;;;;;4.78;2.08;;;26.90;48.70;;;;;;5063891;28;20064;-73
2022/05/11 13:35:33;;;;;;;5.10;2.42;;;26.90;49.30;;;;;;5055945;28;20115;-74
2022/05/11 13:38:08;;;;;;;8.48;2.25;;;27.00;49.00;;;;;;5072029;28;20021;-72
2022/05/11 13:40:41;;;;;;;4.97;2.38;;;26.90;48.60;;;;;;5051978;28;20044;-72
2022/05/11 13:43:24;;;;;;;7.35;2.40;;;26.90;48.60;;;;;;5069306;28;20032;-73
2022/05/11 13:46:10;;;;;;;5.57;2.20;;;26.80;48.60;;;;;;5071689;28;20017;-73
2022/05/11 13:48:45;;;;;;;8.00;2.60;;;26.90;48.30;;;;;;5058205;28;20040;-73
2022/05/11 13:54:35;;;;;;;3.42;2.03;;;26.80;48.00;;;;;;5071768;28;20086;-72